Bango, Nevada Weather observations

Data are for 10 minute period ending at time listed.
 Day   Time    Ave.   Ave.  Ave.  Vector   Max.   Stn.    Total    Solar   Ave.  
  of    of     Air    Rel.  Wind   Wind    Wind   Baro.  Precip.   Rad.    Soil  
Year   Day     Temp.  Hum.  Speed  Dir.    Gust   Pres.                    Temp. 
2016   (PST)    F      %     mph   deg.    mph     mb.     in.     W/m2     F    
--------------------------------------------------------------------------------- 
 120    6:30   50.0    50    5.4   141     10.5   872.7    0.00     115    14.4  
 120    6:40   50.0    50    5.4   182     10.5   872.7    0.00     135    14.3  
 120    6:50   50.2    50    4.3   175      7.8   872.7    0.00     135    14.3  
 120    7:00   49.9    51    7.1   174      9.6   872.7    0.00     272    14.2  
 120    7:10   51.2    48    7.1   186      8.7   872.8    0.00     380    14.2  
 120    7:20   52.2    45    6.3   191      8.7   872.7    0.00     355    14.2  
 120    7:30   52.6    45    4.9   211      6.9   872.5    0.00     349    14.2  
 120    7:40   54.0    43    4.2   217      6.9   872.5    0.00     491    14.1  
 120    7:50   55.3    41    3.7   213      7.8   872.5    0.00     540    14.1  
 120    8:00   56.3    38    3.1   212      7.8   872.4    0.00     524    14.1  
 120    8:10   56.6    37    6.6   162     13.2   872.3    0.00     570    14.1  
 120    8:20   57.6    34    4.6   177      9.6   872.2    0.00     647    14.0  
 120    8:30   59.1    32    8.3   277     15.8   872.1    0.00     649    14.0  
 120    8:40   58.8    30   11.8   274     16.7   872.2    0.00     664    14.0  
 120    8:50   58.8    32    8.6   301     14.1   872.1    0.00     605    14.1  
 120    9:00   59.1    30    9.2   282     15.8   872.2    0.00     674    14.1  
 120    9:10   59.1    30    9.4   275     13.2   872.2    0.00     690    14.1  
 120    9:20   59.5    30   10.4   307     16.7   872.2    0.00     798    14.1  
 120    9:30   59.6    30    9.8   310     15.8   872.0    0.00     824    14.1  
 120    9:40   60.7    29    8.1   311     21.2   872.0    0.00     851    14.2  
 120    9:50   61.4    28   11.0   316     16.7   871.9    0.00     904    14.2  
 120   10:00   60.7    30   12.3   338     19.4   871.9    0.00     811    14.3  
 120   10:10   60.7    29   11.5   316     20.3   872.0    0.00     611    14.4  
 120   10:20   60.7    29    9.8   294     14.9   872.0    0.00     630    14.4  
 120   10:30   60.8    29    8.9   306     16.7   871.9    0.00     484    14.6  
 120   10:40   62.0    29   13.3   296     21.2   871.8    0.00    1028    14.7  
 120   10:50   62.0    29   11.9   326     20.3   871.7    0.00    1008    14.8  
 120   11:00   62.3    29    9.7   308     19.4   871.7    0.00     924    14.9  
 120   11:10   62.5    29   10.0   331     15.8   871.5    0.00     958    15.0  
 120   11:20   61.8    28    6.7   319     14.1   871.4    0.00     594    15.1  
 120   11:30   61.9    27    7.8   283     17.6   871.2    0.00     406    15.2  
 120   11:40   61.8    26    7.0   323     14.9   871.0    0.00     723    15.4  
 120   11:50   63.9    25    5.8   234      9.6   870.8    0.00     767    15.5  
 120   12:00   63.4    24    8.9   270     18.5   870.7    0.00     378    15.7  
 120   12:10   63.4    21   13.6   300     21.2   870.5    0.00     383    15.8  
 120   12:20   63.4    20   14.2   294     21.2   870.5    0.00     347    16.0  
 120   12:30   63.5    19   10.8   297     18.5   870.3    0.00     472    16.1  
 120   12:40   65.4    18   11.8   277     23.9   870.1    0.00     862    16.3  
 120   12:50   65.4    18    9.4   300     17.6   870.0    0.00     606    16.4  
 120   13:00   65.0    18   12.8   320     19.4   869.9    0.00     454    16.6  
 120   13:10   65.5    17   12.1   304     22.1   869.7    0.00     584    16.7  
 120   13:20   65.4    18   13.5   323     18.5   869.6    0.00     503    16.9  
 120   13:30   64.8    19   11.5   321     20.3   869.5    0.00     457    17.0  
 120   13:40   65.5    19   15.2   302     20.3   869.2    0.00     488    17.1  
 120   13:50   65.3    19   13.3   288     21.2   869.0    0.00     379    17.2  
 120   14:00   64.7    20   12.4   309     20.3   868.8    0.00     313    17.4  
 120   14:10   64.9    19   12.6   302     20.3   868.5    0.00     263    17.5  
 120   14:20   64.4    20   16.7   320     22.1   868.5    0.00     186    17.6  
 120   14:30   63.0    21   21.5   317     31.9   868.5    0.00     160    17.7  
 120   14:40   61.7    24   22.4   327     31.0   868.4    0.00     217    17.8  
 120   14:50   61.4    25   19.7   322     26.6   868.5    0.00     215    18.0  
 120   15:00   61.0    26   19.9   327     25.7   868.6    0.00     154    18.0  
 120   15:10   60.6    27   17.2   327     23.9   868.5    0.00     186    18.1  
 120   15:20   60.5    28   19.1   329     25.7   868.5    0.00     109    18.2  
 120   15:30   58.9    32   25.5   324     39.1   868.6    0.00      44    18.3  
 120   15:40   55.5    43   25.1   329     35.5   868.9    0.00      77    18.3  
 120   15:50   55.1    44   20.6   319     31.0   868.9    0.00      72    18.4  
 120   16:00   53.9    51   21.8   324     27.5   869.0    0.00      55    18.5  
 120   16:10   52.9    56   23.4   326     29.2   869.0    0.00      74    18.5  
 120   16:20   51.4    63   22.8   321     30.1   869.1    0.00     110    18.6  
 120   16:30   50.3    67   25.7   325     35.5   869.3    0.00      95    18.6  
 120   16:40   48.8    70   18.9   332     26.6   869.8    0.00      44    18.6  
 120   16:50   48.3    72   11.8   330     24.8   870.1    0.00      18    18.6  
 120   17:00   48.2    73    9.9   296     17.6   870.1    0.01      22    18.6  
 120   17:10   48.9    69   15.3   274     27.5   870.2    0.00      18    18.6  
 120   17:20   49.2    66   12.5   262     20.3   870.0    0.01      39    18.6  
 120   17:30   49.2    67   11.1   244     15.8   869.8    0.00      52    18.6  
 120   17:40   49.7    69    8.1   243     10.5   869.6    0.00     105    18.6  
 120   17:50   50.8    63    7.6   281     10.5   869.7    0.00      72    18.5  
 120   18:00   51.0    61    8.0   284     13.2   869.9    0.00      28    18.5  
 120   18:10   50.6    67   10.5   272     13.2   870.2    0.00      16    18.5  
 120   18:20   50.5    61   16.6   290     23.9   870.3    0.00       9    18.4  
 120   18:30   50.1    60   13.3   296     17.6   870.3    0.00      17    18.4  
 120   18:40   49.9    62   11.8   282     15.8   870.2    0.00      15    18.3  
 120   18:50   49.6    64    9.5   273     13.2   870.4    0.00       4    18.3  
 120   19:00   50.1    59   12.7   300     19.4   870.5    0.00       1    18.2  
 120   19:10   50.2    57   14.1   328     19.4   870.5    0.00       0    18.1  
 120   19:20   49.9    54   15.1   331     20.3   870.6    0.00       0    18.1  
 120   19:30   49.5    56   12.3   316     16.7   870.8    0.00       0    18.0  
 120   19:40   49.7    53   10.8   313     17.6   870.8    0.00       0    18.0  
 120   19:50   50.1    53   11.8    13     16.7   871.1    0.00       0    17.9  
 120   20:00   49.8    56   10.3   346     30.1   871.4    0.00       0    17.8  
 120   20:10   46.8    68   23.7   326     40.0   871.6    0.00       0    17.8  
 120   20:20   45.4    73   23.0   344     35.5   872.0    0.01       0    17.8  
 120   20:30   44.8    79   19.2   336     26.6   872.4    0.01       0    17.7  
 120   20:40   44.4    80   18.7   333     24.8   872.6    0.00       0    17.6  
 120   20:50   44.0    79   16.9   352     24.8   872.8    0.00       0    17.5  
 120   21:00   43.4    82    9.8   338     15.8   872.8    0.00       0    17.5  
 120   21:10   43.4    82    8.7   336     11.4   872.7    0.00       0    17.4  
 120   21:20   43.4    84    6.5   333      8.7   872.6    0.00       0    17.4  
 120   21:30   43.5    83    7.8   310     14.1   872.6    0.00       0    17.3  
 120   21:40   44.2    80   10.8   321     14.1   872.5    0.00       0    17.2  
 120   21:50   44.1    81   12.3   313     16.7   872.5    0.00       0    17.1  
 120   22:00   44.1    79   14.2   325     20.3   872.5    0.00       0    17.0  
 120   22:10   43.9    76   14.7   330     19.4   872.5    0.00       0    17.0  
 120   22:20   43.5    78   12.7   323     16.7   872.7    0.00       0    16.9  
 120   22:30   43.7    76   12.4   329     16.7   872.8    0.00       0    16.9  
 120   22:40   43.6    76   10.9   326     15.8   872.9    0.00       0    16.8  
 120   22:50   43.4    77   10.3   324     14.9   873.0    0.00       0    16.7  
 120   23:00   43.5    76   10.8   322     14.9   873.0    0.00       0    16.6  
 120   23:10   43.7    73   12.9   327     18.5   872.9    0.00       0    16.6  
 120   23:20   43.7    72   11.4   327     16.7   872.9    0.00       0    16.5  
 120   23:30   43.5    74   11.8   323     15.8   872.9    0.00       0    16.5  
 120   23:40   43.3    74   12.3   326     17.6   872.9    0.00       0    16.4  
 120   23:50   42.8    75   11.9   330     15.8   873.0    0.00       0    16.3  
 121    0:00   42.5    74   12.2   324     16.7   873.1    0.00       0    16.2  
 121    0:10   42.7    72   12.7   324     19.4   873.1    0.00       0    16.2  
 121    0:20   42.9    69   17.0   320     23.0   872.9    0.00       0    16.1  
 121    0:30   42.8    68   16.5   325     21.2   873.0    0.00       0    16.0  
 121    0:40   42.4    69   15.6   325     20.3   873.1    0.00       0    16.0  
 121    0:50   42.4    69   13.4   325     19.4   873.2    0.00       0    15.9  
 121    1:00   42.6    68   13.4   324     17.6   873.2    0.00       0    15.8  
 121    1:10   42.6    69   13.9   324     17.6   873.2    0.00       0    15.8  
 121    1:20   42.9    67   14.3   325     18.5   873.3    0.00       0    15.7  
 121    1:30   43.1    66   13.0   325     17.6   873.3    0.00       0    15.7  
 121    1:40   43.2    65   11.4   325     16.7   873.3    0.00       0    15.6  
 121    1:50   43.1    66   10.9   320     14.9   873.3    0.00       0    15.5  
 121    2:00   42.8    68   11.0   321     16.7   873.3    0.00       0    15.5  
 121    2:10   43.1    65   15.7   330     21.2   873.2    0.00       0    15.4  
 121    2:20   43.1    65   15.0   329     20.3   873.2    0.00       0    15.3  
 121    2:30   42.6    67   13.9   324     18.5   873.4    0.00       0    15.3  
 121    2:40   42.8    67   13.2   324     16.7   873.5    0.00       0    15.2  
 121    2:50   43.0    66   13.6   322     18.5   873.5    0.00       0    15.2  
 121    3:00   43.0    67   12.4   326     17.6   873.6    0.00       0    15.1  
 121    3:10   42.8    68   11.5   332     14.9   873.7    0.00       0    15.0  
 121    3:20   42.9    68   11.7   339     17.6   873.9    0.00       0    15.0  
 121    3:30   42.9    68   11.3   347     15.8   873.9    0.00       0    14.9  
 121    3:40   42.4    71   11.2   342     16.7   873.9    0.00       0    14.9  
 121    3:50   42.3    72    8.8   345     11.4   873.9    0.00       0    14.8  
 121    4:00   42.5    71    8.8   353     11.4   873.9    0.00       0    14.7  
 121    4:10   42.6    71    8.3   359     10.5   873.8    0.00       0    14.7  
 121    4:20   42.4    73    6.4     5      9.6   873.9    0.00       0    14.6  
 121    4:30   42.0    77    3.7    33      5.1   873.9    0.00       0    14.6  
 121    4:40   41.9    76    4.3    15      6.0   873.9    0.00       0    14.5  
 121    4:50   42.0    77    3.8    30      5.1   873.8    0.00       0    14.5  
 121    5:00   42.1    76    4.1    24      5.1   873.8    0.00       1    14.4  
 121    5:10   42.1    76    4.0     9      5.1   873.9    0.00       2    14.4  
 121    5:20   42.1    78    3.5   296      5.1   873.9    0.00       4    14.3  
 121    5:30   42.5    75    4.8   315      6.0   874.0    0.00       7    14.3  
 121    5:40   42.9    74    3.4   330      5.1   874.1    0.00      10    14.3  
 121    5:50   43.4    72    5.1    14      8.7   874.2    0.00      17    14.2  
 121    6:00   43.9    69    6.7     3     10.5   874.4    0.00      21    14.2  
 121    6:10   44.0    69    6.0     8      8.7   874.4    0.00      28    14.1  
 121    6:20   44.1    69    7.3     9      9.6   874.5    0.00      33    14.1  

Return to Garden Spring, Nevada graphs page.


Western Regional Climate Center,wrcc@dri.edu